createdAt,value
2023-01-19T00:00:52.960Z,48.62
2023-01-19T00:01:52.960Z,48.8
2023-01-19T00:02:52.959Z,48.66
2023-01-19T00:03:52.947Z,48.66
2023-01-19T00:04:52.960Z,48.64
2023-01-19T00:05:52.960Z,48.64
2023-01-19T00:06:52.947Z,48.67
2023-01-19T00:07:52.948Z,48.65
2023-01-19T00:08:52.960Z,48.76
2023-01-19T00:09:53.000Z,48.72
2023-01-19T00:10:52.947Z,48.61
2023-01-19T00:11:52.960Z,48.52
2023-01-19T00:12:52.960Z,48.74
2023-01-19T00:13:52.960Z,48.44
2023-01-19T00:14:52.945Z,48.5
2023-01-19T00:15:52.960Z,48.44
2023-01-19T00:16:52.961Z,48.48
2023-01-19T00:17:52.960Z,48.4
2023-01-19T00:18:52.948Z,48.43
2023-01-19T00:19:52.960Z,48.42
2023-01-19T00:20:52.960Z,48.36
2023-01-19T00:21:52.947Z,48.38
2023-01-19T00:22:52.948Z,48.39
2023-01-19T00:23:52.960Z,48.27
2023-01-19T00:24:52.960Z,48.52
2023-01-19T00:25:52.947Z,48.45
2023-01-19T00:26:53.001Z,48.25
2023-01-19T00:27:52.961Z,48.32
2023-01-19T00:28:52.960Z,48.38
2023-01-19T00:29:52.946Z,48.31
2023-01-19T00:30:52.960Z,48.31
2023-01-19T00:31:52.961Z,48.26
2023-01-19T00:32:52.960Z,48.28
2023-01-19T00:33:52.948Z,48.23
2023-01-19T00:34:52.961Z,48.18
2023-01-19T00:35:52.961Z,48.2
2023-01-19T00:36:52.960Z,48.32
2023-01-19T00:37:52.948Z,48.29
2023-01-19T00:38:52.961Z,48.21
2023-01-19T00:39:52.960Z,48.24
2023-01-19T00:40:52.947Z,48.23
2023-01-19T00:41:52.948Z,48.24
2023-01-19T00:42:52.961Z,48.25
2023-01-19T00:43:52.986Z,48.46
2023-01-19T00:44:52.947Z,48.34
2023-01-19T00:45:52.961Z,48.19
2023-01-19T00:46:52.961Z,48.25
2023-01-19T00:47:52.960Z,48.39
2023-01-19T00:48:52.947Z,48.35
2023-01-19T00:49:52.960Z,48.17
2023-01-19T00:50:52.962Z,48.26
2023-01-19T00:51:52.960Z,48.24
2023-01-19T00:52:52.948Z,48.24
2023-01-19T00:54:02.220Z,48.27
2023-01-19T00:54:52.961Z,48.05
2023-01-19T00:55:52.961Z,48.19
2023-01-19T00:56:52.948Z,48.24
2023-01-19T00:57:52.961Z,48.14
2023-01-19T00:58:52.961Z,48.26
2023-01-19T00:59:52.948Z,48.27
2023-01-19T01:00:52.947Z,48.26
2023-01-19T01:01:52.961Z,48.29
2023-01-19T01:02:52.961Z,48.33
2023-01-19T01:03:52.948Z,48.25
2023-01-19T01:04:52.960Z,48.09
2023-01-19T01:05:52.961Z,48.13
2023-01-19T01:06:52.961Z,48.09
2023-01-19T01:07:52.948Z,48.12
2023-01-19T01:08:52.961Z,48.05
2023-01-19T01:09:52.961Z,48.01
2023-01-19T01:10:52.961Z,48.15
2023-01-19T01:11:52.948Z,48.04
2023-01-19T01:12:52.960Z,47.95
2023-01-19T01:13:52.962Z,48.02
2023-01-19T01:14:52.948Z,48.04
2023-01-19T01:15:52.948Z,48.03
2023-01-19T01:16:52.961Z,48.09
2023-01-19T01:17:52.960Z,48.01
2023-01-19T01:18:52.948Z,48.05
2023-01-19T01:19:52.961Z,48.19
2023-01-19T01:20:52.961Z,48.19
2023-01-19T01:21:52.960Z,47.94
2023-01-19T01:22:52.946Z,48.14
2023-01-19T01:23:52.961Z,48.16
2023-01-19T01:24:53.025Z,48
2023-01-19T01:25:52.960Z,47.95
2023-01-19T01:26:52.948Z,48.13
2023-01-19T01:27:52.961Z,48.11
2023-01-19T01:28:52.960Z,48.06
2023-01-19T01:29:52.960Z,48.04
2023-01-19T01:30:52.948Z,48.04
2023-01-19T01:31:52.961Z,48.17
2023-01-19T01:32:52.962Z,48.05
2023-01-19T01:33:52.948Z,47.98
2023-01-19T01:34:52.948Z,47.96
2023-01-19T01:35:52.960Z,47.8
2023-01-19T01:36:53.001Z,47.9
2023-01-19T01:37:52.946Z,47.95
2023-01-19T01:38:52.961Z,47.96
2023-01-19T01:39:52.960Z,48.19
2023-01-19T01:40:52.961Z,48.04
2023-01-19T01:41:52.948Z,47.97
2023-01-19T01:42:52.961Z,47.97
2023-01-19T01:43:52.960Z,47.81
2023-01-19T01:44:52.960Z,47.94
2023-01-19T01:45:52.946Z,47.86
2023-01-19T01:46:52.960Z,47.82
2023-01-19T01:47:52.961Z,47.82
2023-01-19T01:48:52.948Z,47.82
2023-01-19T01:49:52.946Z,47.82
2023-01-19T01:50:52.961Z,47.8
2023-01-19T01:51:52.962Z,47.93
2023-01-19T01:52:52.946Z,47.87
2023-01-19T01:53:53.011Z,47.76
2023-01-19T01:54:52.960Z,47.83
2023-01-19T01:55:52.961Z,47.96
2023-01-19T01:56:52.948Z,47.88
2023-01-19T01:57:52.960Z,47.74
2023-01-19T01:58:52.961Z,47.86
2023-01-19T01:59:52.960Z,47.77
2023-01-19T02:01:52.960Z,47.83
2023-01-19T02:02:52.960Z,48.01
2023-01-19T02:03:52.961Z,47.98
2023-01-19T02:04:52.947Z,47.98
2023-01-19T02:05:52.961Z,48.05
2023-01-19T02:06:52.962Z,48.05
2023-01-19T02:07:52.948Z,48.06
2023-01-19T02:08:52.949Z,48.09
2023-01-19T02:09:52.961Z,48.02
2023-01-19T02:10:52.986Z,48.07
2023-01-19T02:11:52.948Z,48.1
2023-01-19T02:12:52.961Z,48.15
2023-01-19T02:13:52.961Z,47.91
2023-01-19T02:14:52.961Z,48.03
2023-01-19T02:15:52.948Z,48.13
2023-01-19T02:16:52.961Z,48.02
2023-01-19T02:17:52.962Z,48.06
2023-01-19T02:18:52.960Z,48.04
2023-01-19T02:19:52.949Z,48.08
2023-01-19T02:20:52.961Z,48.19
2023-01-19T02:21:52.962Z,48.02
2023-01-19T02:22:52.948Z,48
2023-01-19T02:23:52.949Z,47.96
2023-01-19T02:24:52.961Z,47.92
2023-01-19T02:25:52.961Z,47.98
2023-01-19T02:26:52.946Z,47.87
2023-01-19T02:27:52.946Z,47.84
2023-01-19T02:28:52.961Z,47.65
2023-01-19T02:29:52.960Z,47.71
2023-01-19T02:30:52.946Z,47.83
2023-01-19T02:31:52.962Z,47.91
2023-01-19T02:32:52.961Z,47.89
2023-01-19T02:34:02.219Z,47.8
2023-01-19T02:34:52.948Z,47.88
2023-01-19T02:35:52.962Z,48
2023-01-19T02:36:52.961Z,47.99
2023-01-19T02:37:52.961Z,47.92
2023-01-19T02:38:52.949Z,47.92
2023-01-19T02:39:52.962Z,48
2023-01-19T02:40:52.960Z,47.94
2023-01-19T02:41:52.948Z,47.95
2023-01-19T02:42:52.949Z,47.95
2023-01-19T02:43:52.961Z,47.86
2023-01-19T02:44:52.962Z,48.11
2023-01-19T02:45:52.948Z,47.98
2023-01-19T02:46:53.026Z,47.97
2023-01-19T02:47:52.961Z,48.15
2023-01-19T02:48:52.961Z,47.91
2023-01-19T02:49:52.948Z,47.96
2023-01-19T02:50:52.962Z,47.95
2023-01-19T02:51:52.961Z,48.1
2023-01-19T02:52:52.961Z,48.03
2023-01-19T02:53:52.949Z,48.08
2023-01-19T02:54:52.961Z,48.08
2023-01-19T02:55:52.961Z,48.17
2023-01-19T02:56:52.962Z,48.07
2023-01-19T02:57:52.949Z,48.03
2023-01-19T02:58:52.963Z,48.2
2023-01-19T02:59:52.961Z,48.21
2023-01-19T03:00:52.948Z,48.02
2023-01-19T03:01:52.949Z,48.03
2023-01-19T03:02:52.962Z,48.14
2023-01-19T03:03:52.961Z,47.99
2023-01-19T03:05:52.962Z,47.94
2023-01-19T03:06:52.961Z,47.86
2023-01-19T03:07:52.961Z,47.8
2023-01-19T03:08:52.948Z,48.01
2023-01-19T03:09:52.962Z,48.14
2023-01-19T03:10:52.962Z,47.89
2023-01-19T03:11:52.961Z,48.01
2023-01-19T03:12:52.949Z,47.95
2023-01-19T03:13:52.962Z,47.81
2023-01-19T03:14:52.962Z,47.96
2023-01-19T03:15:52.971Z,48
2023-01-19T03:16:52.949Z,47.95
2023-01-19T03:17:52.962Z,48.08
2023-01-19T03:18:52.963Z,47.9
2023-01-19T03:19:52.948Z,47.96
2023-01-19T03:20:52.949Z,47.95
2023-01-19T03:21:52.961Z,48.03
2023-01-19T03:22:52.961Z,47.92
2023-01-19T03:23:52.948Z,47.94
2023-01-19T03:24:52.962Z,47.91
2023-01-19T03:25:52.961Z,47.96
2023-01-19T03:26:52.961Z,47.84
2023-01-19T03:27:52.949Z,47.88
2023-01-19T03:28:52.962Z,47.84
2023-01-19T03:29:52.962Z,47.86
2023-01-19T03:30:52.961Z,47.82
2023-01-19T03:31:52.949Z,47.81
2023-01-19T03:32:52.962Z,47.76
2023-01-19T03:33:52.963Z,47.66
2023-01-19T03:34:52.948Z,47.6
2023-01-19T03:35:52.949Z,47.54
2023-01-19T03:36:52.962Z,47.52
2023-01-19T03:37:52.962Z,47.44
2023-01-19T03:38:52.948Z,47.34
2023-01-19T03:39:52.962Z,47.32
2023-01-19T03:40:52.962Z,47.48
2023-01-19T03:41:52.962Z,47.32
2023-01-19T03:42:52.948Z,47.38
2023-01-19T03:43:52.962Z,47.37
2023-01-19T03:44:53.005Z,47.47
2023-01-19T03:45:52.962Z,47.49
2023-01-19T03:46:52.949Z,47.51
2023-01-19T03:47:52.962Z,47.54
2023-01-19T03:48:52.962Z,47.5
2023-01-19T03:49:52.962Z,47.59
2023-01-19T03:50:52.949Z,47.53
2023-01-19T03:51:52.961Z,47.54
2023-01-19T03:52:52.962Z,47.44
2023-01-19T03:53:52.948Z,47.51
2023-01-19T03:54:52.949Z,47.52
2023-01-19T03:55:52.962Z,47.58
2023-01-19T03:56:52.987Z,47.69
2023-01-19T03:57:52.948Z,47.59
2023-01-19T03:58:52.962Z,47.56
2023-01-19T03:59:52.962Z,47.53
2023-01-19T04:00:52.961Z,47.64
2023-01-19T04:01:52.948Z,47.67
2023-01-19T04:02:52.962Z,47.77
2023-01-19T04:03:52.962Z,47.69
2023-01-19T04:04:52.961Z,47.75
2023-01-19T04:05:52.949Z,47.71
2023-01-19T04:06:52.962Z,47.61
2023-01-19T04:07:52.962Z,47.63
2023-01-19T04:08:52.948Z,47.66
2023-01-19T04:09:52.949Z,47.65
2023-01-19T04:10:52.962Z,47.69
2023-01-19T04:11:52.963Z,47.76
2023-01-19T04:12:52.948Z,47.71
2023-01-19T04:14:02.206Z,47.71
2023-01-19T04:14:52.962Z,47.81
2023-01-19T04:15:52.962Z,47.62
2023-01-19T04:16:52.948Z,47.75
2023-01-19T04:17:52.962Z,47.64
2023-01-19T04:18:52.961Z,47.7
2023-01-19T04:19:52.962Z,47.61
2023-01-19T04:20:52.948Z,47.68
2023-01-19T04:21:52.962Z,47.58
2023-01-19T04:22:52.962Z,47.61
2023-01-19T04:23:52.961Z,47.59
2023-01-19T04:24:52.949Z,47.55
2023-01-19T04:25:52.962Z,47.5
2023-01-19T04:26:52.962Z,47.68
2023-01-19T04:27:52.948Z,47.57
2023-01-19T04:28:52.949Z,47.54
2023-01-19T04:29:52.962Z,47.65
2023-01-19T04:30:52.963Z,47.33
2023-01-19T04:31:52.948Z,47.48
2023-01-19T04:32:52.962Z,47.52
2023-01-19T04:33:52.961Z,47.32
2023-01-19T04:34:52.961Z,47.42
2023-01-19T04:35:52.948Z,47.4
2023-01-19T04:36:52.962Z,47.56
2023-01-19T04:37:53.027Z,47.44
2023-01-19T04:38:52.961Z,47.46
2023-01-19T04:39:52.949Z,47.25
2023-01-19T04:40:52.962Z,46.92
2023-01-19T04:41:52.963Z,47.15
2023-01-19T04:42:52.962Z,47.3
2023-01-19T04:43:52.949Z,47.13
2023-01-19T04:44:52.962Z,47.14
2023-01-19T04:45:52.963Z,47.37
2023-01-19T04:46:52.948Z,47.33
2023-01-19T04:47:52.949Z,47.34
2023-01-19T04:48:52.961Z,47.5
2023-01-19T04:49:52.963Z,47.35
2023-01-19T04:50:52.948Z,47.4
2023-01-19T04:51:52.962Z,47.44
2023-01-19T04:52:52.961Z,47.15
2023-01-19T04:53:52.961Z,47.27
2023-01-19T04:54:52.948Z,47.34
2023-01-19T04:55:52.962Z,47.23
2023-01-19T04:56:52.963Z,47.21
2023-01-19T04:57:52.962Z,47.25
2023-01-19T04:58:52.949Z,47.22
2023-01-19T04:59:52.961Z,47.27
2023-01-19T05:00:52.963Z,47.36
2023-01-19T05:01:52.948Z,47.33
2023-01-19T05:02:52.949Z,47.31
2023-01-19T05:03:52.962Z,47.23
2023-01-19T05:04:52.963Z,47.32
2023-01-19T05:05:52.948Z,47.2
2023-01-19T05:06:53.011Z,47.25
2023-01-19T05:07:52.962Z,47.1
2023-01-19T05:08:52.961Z,47.22
2023-01-19T05:09:52.948Z,47.18
2023-01-19T05:10:52.962Z,47.13
2023-01-19T05:11:52.961Z,47.35
2023-01-19T05:12:52.961Z,47.08
2023-01-19T05:13:52.949Z,47.15
2023-01-19T05:14:52.962Z,47.11
2023-01-19T05:15:52.962Z,47.04
2023-01-19T05:16:52.962Z,47.36
2023-01-19T05:17:52.949Z,47.19
2023-01-19T05:18:52.962Z,47.38
2023-01-19T05:19:52.962Z,47.18
2023-01-19T05:20:52.948Z,47.27
2023-01-19T05:21:52.949Z,47.27
2023-01-19T05:22:52.962Z,47.45
2023-01-19T05:23:52.986Z,47.24
2023-01-19T05:24:52.948Z,47.19
2023-01-19T05:25:52.962Z,47.15
2023-01-19T05:26:52.962Z,47.12
2023-01-19T05:27:52.962Z,47.1
2023-01-19T05:28:52.948Z,47.18
2023-01-19T05:29:52.962Z,47.12
2023-01-19T05:30:52.962Z,47.27
2023-01-19T05:31:52.962Z,47.34
2023-01-19T05:32:52.949Z,47.22
2023-01-19T05:33:52.962Z,47.3
2023-01-19T05:34:52.961Z,47.4
2023-01-19T05:35:52.948Z,47.26
2023-01-19T05:36:52.949Z,47.26
2023-01-19T05:37:52.962Z,47.23
2023-01-19T05:38:52.961Z,47.1
2023-01-19T05:39:52.948Z,47.22
2023-01-19T05:40:52.947Z,47.22
2023-01-19T05:41:52.962Z,47.24
2023-01-19T05:42:52.961Z,47.09
2023-01-19T05:43:52.948Z,47.12
2023-01-19T05:44:52.962Z,46.96
2023-01-19T05:45:52.961Z,47
2023-01-19T05:46:52.961Z,46.92
2023-01-19T05:47:52.949Z,46.76
2023-01-19T05:48:52.962Z,46.73
2023-01-19T05:49:52.962Z,46.72
2023-01-19T05:50:52.961Z,46.59
2023-01-19T05:51:52.948Z,46.45
2023-01-19T05:52:53.025Z,46.5
2023-01-19T05:54:02.222Z,46.36
2023-01-19T05:54:52.948Z,46.26
2023-01-19T05:55:52.949Z,46.17
2023-01-19T05:56:52.962Z,45.99
2023-01-19T05:57:52.963Z,46.08
2023-01-19T05:58:52.949Z,46.02
2023-01-19T05:59:52.949Z,45.97
2023-01-19T06:00:52.962Z,46.14
2023-01-19T06:01:52.961Z,46.04
2023-01-19T06:02:52.949Z,46.06
2023-01-19T06:03:52.962Z,46.01
2023-01-19T06:04:52.962Z,46.07
2023-01-19T06:05:52.961Z,46.02
2023-01-19T06:06:52.949Z,46.02
2023-01-19T06:07:52.962Z,46.17
2023-01-19T06:08:52.963Z,46.02
2023-01-19T06:09:52.962Z,46.1
2023-01-19T06:11:52.962Z,46.18
2023-01-19T06:12:52.962Z,46.28
2023-01-19T06:13:52.949Z,46.31
2023-01-19T06:14:52.949Z,46.44
2023-01-19T06:15:52.962Z,46.52
2023-01-19T06:16:52.963Z,46.64
2023-01-19T06:17:52.949Z,46.71
2023-01-19T06:18:52.962Z,46.71
2023-01-19T06:19:52.962Z,46.75
2023-01-19T06:20:52.961Z,46.94
2023-01-19T06:21:52.949Z,46.91
2023-01-19T06:22:52.962Z,46.85
2023-01-19T06:23:53.027Z,46.79
2023-01-19T06:24:52.962Z,46.76
2023-01-19T06:25:52.947Z,46.85
2023-01-19T06:26:52.962Z,46.98
2023-01-19T06:27:52.962Z,46.91
2023-01-19T06:28:52.962Z,46.89
2023-01-19T06:29:52.950Z,47.03
2023-01-19T06:30:52.962Z,47.1
2023-01-19T06:31:52.962Z,46.98
2023-01-19T06:32:52.949Z,47
2023-01-19T06:33:52.950Z,47
2023-01-19T06:34:52.962Z,47
2023-01-19T06:35:53.003Z,46.97
2023-01-19T06:36:52.949Z,46.99
2023-01-19T06:37:52.962Z,47.04
2023-01-19T06:38:52.962Z,47.15
2023-01-19T06:39:52.961Z,47.21
2023-01-19T06:40:52.949Z,47.1
2023-01-19T06:41:52.962Z,47.18
2023-01-19T06:42:52.962Z,47.07
2023-01-19T06:43:52.961Z,47.17
2023-01-19T06:44:52.950Z,47.12
2023-01-19T06:45:52.962Z,47.12
2023-01-19T06:46:52.962Z,47.28
2023-01-19T06:47:52.947Z,47.23
2023-01-19T06:48:52.950Z,47.25
2023-01-19T06:49:52.962Z,47.3
2023-01-19T06:50:52.961Z,47.3
2023-01-19T06:51:52.949Z,47.41
2023-01-19T06:52:52.950Z,47.44
2023-01-19T06:53:52.962Z,47.5
2023-01-19T06:54:52.961Z,47.48
2023-01-19T06:55:52.947Z,47.51
2023-01-19T06:56:52.963Z,47.46
2023-01-19T06:57:52.962Z,47.67
2023-01-19T06:59:52.950Z,47.36
2023-01-19T07:00:52.962Z,47.28
2023-01-19T07:01:52.962Z,47.22
2023-01-19T07:02:52.962Z,47.12
2023-01-19T07:03:52.950Z,47.06
2023-01-19T07:04:53.004Z,46.98
2023-01-19T07:05:52.963Z,47.25
2023-01-19T07:06:52.949Z,47
2023-01-19T07:07:52.950Z,46.97
2023-01-19T07:08:52.963Z,47.06
2023-01-19T07:09:52.963Z,46.86
2023-01-19T07:10:52.948Z,46.94
2023-01-19T07:11:52.963Z,46.84
2023-01-19T07:12:52.962Z,46.9
2023-01-19T07:13:52.963Z,46.96
2023-01-19T07:14:52.949Z,46.95
2023-01-19T07:15:52.963Z,46.99
2023-01-19T07:16:52.963Z,47.07
2023-01-19T07:17:52.963Z,47.09
2023-01-19T07:18:52.950Z,47.23
2023-01-19T07:19:52.963Z,47.24
2023-01-19T07:20:52.963Z,47.23
2023-01-19T07:21:52.948Z,47.4
2023-01-19T07:22:52.950Z,47.45
2023-01-19T07:23:52.963Z,47.73
2023-01-19T07:24:52.963Z,47.5
2023-01-19T07:25:52.949Z,47.38
2023-01-19T07:26:52.950Z,47.36
2023-01-19T07:27:52.963Z,47.36
2023-01-19T07:28:52.963Z,47.26
2023-01-19T07:29:52.949Z,47.2
2023-01-19T07:30:52.962Z,46.97
2023-01-19T07:31:52.962Z,47.17
2023-01-19T07:32:52.962Z,46.84
2023-01-19T07:34:02.206Z,46.84
2023-01-19T07:34:52.963Z,46.89
2023-01-19T07:35:52.963Z,46.53
2023-01-19T07:36:52.962Z,46.45
2023-01-19T07:37:52.950Z,46.43
2023-01-19T07:38:52.963Z,46.4
2023-01-19T07:39:52.963Z,46.3
2023-01-19T07:40:52.949Z,46.3
2023-01-19T07:41:52.950Z,46.31
2023-01-19T07:42:52.963Z,46.18
2023-01-19T07:43:52.963Z,46.24
2023-01-19T07:44:52.948Z,46.33
2023-01-19T07:45:53.003Z,46.42
2023-01-19T07:46:52.963Z,46.24
2023-01-19T07:47:52.963Z,46.32
2023-01-19T07:48:52.950Z,46.33
2023-01-19T07:49:52.963Z,46.3
2023-01-19T07:50:52.963Z,46.12
2023-01-19T07:51:52.962Z,46.41
2023-01-19T07:52:52.950Z,46.41
2023-01-19T07:53:52.963Z,46.46
2023-01-19T07:54:52.963Z,46.37
2023-01-19T07:55:52.963Z,46.25
2023-01-19T07:56:52.949Z,46.2
2023-01-19T07:57:52.964Z,46.25
2023-01-19T07:58:52.964Z,46.03
2023-01-19T07:59:52.950Z,46.04
2023-01-19T08:00:52.950Z,46.01
2023-01-19T08:01:52.963Z,46.02
2023-01-19T08:02:52.962Z,45.9
2023-01-19T08:03:52.950Z,45.9
2023-01-19T08:04:52.963Z,45.76
2023-01-19T08:05:52.962Z,45.9
2023-01-19T08:06:52.963Z,45.74
2023-01-19T08:07:52.950Z,45.77
2023-01-19T08:08:52.963Z,45.74
2023-01-19T08:09:52.963Z,45.72
2023-01-19T08:10:52.963Z,45.89
2023-01-19T08:11:52.951Z,45.75
2023-01-19T08:12:52.963Z,45.72
2023-01-19T08:13:52.962Z,45.73
2023-01-19T08:14:52.950Z,45.62
2023-01-19T08:15:52.951Z,45.68
2023-01-19T08:16:52.962Z,45.74
2023-01-19T08:17:52.963Z,45.7
2023-01-19T08:18:52.950Z,45.93
2023-01-19T08:19:52.949Z,45.95
2023-01-19T08:20:52.964Z,46.14
2023-01-19T08:21:52.963Z,45.92
2023-01-19T08:22:52.950Z,45.86
2023-01-19T08:23:52.964Z,45.74
2023-01-19T08:24:52.963Z,45.95
2023-01-19T08:25:52.964Z,45.89
2023-01-19T08:26:52.951Z,45.98
2023-01-19T08:27:52.963Z,46.04
2023-01-19T08:28:52.963Z,46.32
2023-01-19T08:29:52.963Z,46.32
2023-01-19T08:30:52.951Z,46.25
2023-01-19T08:31:52.964Z,46.43
2023-01-19T08:32:52.965Z,46.41
2023-01-19T08:33:52.950Z,46.46
2023-01-19T08:34:52.951Z,46.5
2023-01-19T08:35:52.964Z,46.59
2023-01-19T08:36:52.964Z,46.82
2023-01-19T08:37:52.949Z,46.85
2023-01-19T08:38:52.964Z,46.83
2023-01-19T08:39:52.964Z,47.08
2023-01-19T08:40:52.964Z,47.27
2023-01-19T08:41:52.951Z,47.25
2023-01-19T08:42:52.964Z,47.21
2023-01-19T08:43:52.967Z,47.41
2023-01-19T08:44:52.964Z,47.29
2023-01-19T08:45:52.951Z,47.35
2023-01-19T08:46:52.964Z,47.43
2023-01-19T08:47:52.965Z,47.58
2023-01-19T08:48:52.964Z,47.45
2023-01-19T08:49:52.951Z,47.69
2023-01-19T08:50:52.964Z,47.65
2023-01-19T08:51:52.964Z,47.9
2023-01-19T08:52:52.949Z,47.78
2023-01-19T08:53:52.951Z,47.76
2023-01-19T08:55:53.005Z,47.82
2023-01-19T08:56:52.949Z,47.68
2023-01-19T08:57:52.964Z,47.67
2023-01-19T08:58:52.964Z,47.57
2023-01-19T08:59:52.963Z,47.55
2023-01-19T09:00:52.951Z,47.6
2023-01-19T09:01:52.964Z,47.55
2023-01-19T09:02:52.965Z,47.46
2023-01-19T09:03:52.963Z,47.51
2023-01-19T09:04:52.952Z,47.51
2023-01-19T09:05:52.964Z,47.45
2023-01-19T09:06:52.965Z,47.51
2023-01-19T09:07:52.951Z,47.33
2023-01-19T09:08:52.952Z,47.24
2023-01-19T09:09:52.964Z,47.31
2023-01-19T09:10:52.965Z,47.26
2023-01-19T09:11:52.950Z,47.24
2023-01-19T09:12:52.966Z,47.25
2023-01-19T09:14:02.223Z,47.45
2023-01-19T09:14:52.965Z,47.39
2023-01-19T09:15:52.951Z,47.39
2023-01-19T09:16:52.965Z,47.35
2023-01-19T09:17:52.965Z,47.64
2023-01-19T09:18:52.965Z,47.44
2023-01-19T09:19:52.952Z,47.45
2023-01-19T09:20:52.965Z,47.35
2023-01-19T09:21:52.965Z,47.4
2023-01-19T09:22:52.964Z,47.23
2023-01-19T09:23:52.952Z,47.17
2023-01-19T09:24:52.965Z,47.04
2023-01-19T09:25:52.965Z,47.13
2023-01-19T09:26:52.952Z,47.13
2023-01-19T09:27:52.952Z,47.14
2023-01-19T09:28:52.965Z,47.26
2023-01-19T09:29:52.965Z,47.11
2023-01-19T09:30:52.952Z,47.09
2023-01-19T09:31:53.005Z,46.98
2023-01-19T09:32:52.965Z,47.1
2023-01-19T09:33:52.964Z,46.99
2023-01-19T09:34:52.952Z,46.9
2023-01-19T09:35:52.965Z,46.86
2023-01-19T09:36:52.965Z,46.79
2023-01-19T09:37:52.965Z,46.76
2023-01-19T09:38:52.953Z,46.71
2023-01-19T09:39:52.964Z,46.62
2023-01-19T09:40:52.965Z,46.68
2023-01-19T09:41:52.964Z,46.64
2023-01-19T09:42:52.953Z,46.63
2023-01-19T09:43:52.964Z,46.61
2023-01-19T09:44:52.965Z,46.65
2023-01-19T09:45:52.950Z,46.62
2023-01-19T09:46:52.952Z,46.64
2023-01-19T09:47:52.966Z,46.56
2023-01-19T09:48:52.967Z,46.61
2023-01-19T09:49:52.952Z,46.58
2023-01-19T09:50:52.965Z,46.45
2023-01-19T09:51:52.966Z,46.68
2023-01-19T09:52:52.965Z,46.35
2023-01-19T09:53:52.952Z,46.15
2023-01-19T09:54:52.965Z,46.2
2023-01-19T09:55:52.966Z,45.95
2023-01-19T09:56:52.965Z,45.82
2023-01-19T09:57:52.953Z,45.86
2023-01-19T09:58:52.966Z,46.01
2023-01-19T09:59:52.965Z,45.77
2023-01-19T10:00:52.951Z,45.92
2023-01-19T10:01:52.953Z,45.91
2023-01-19T10:02:52.965Z,46.17
2023-01-19T10:03:52.966Z,45.84
2023-01-19T10:04:52.953Z,46.04
2023-01-19T10:05:53.016Z,45.95
2023-01-19T10:06:52.966Z,45.97
2023-01-19T10:07:52.965Z,46.09
2023-01-19T10:08:52.953Z,46.16
2023-01-19T10:09:52.967Z,46.18
2023-01-19T10:10:52.966Z,46.12
2023-01-19T10:11:52.966Z,46.4
2023-01-19T10:12:52.954Z,46.59
2023-01-19T10:13:52.966Z,46.58
2023-01-19T10:14:52.967Z,46.93
2023-01-19T10:15:52.967Z,46.72
2023-01-19T10:16:52.954Z,46.69
2023-01-19T10:17:52.967Z,46.46
2023-01-19T10:18:52.968Z,46.33
2023-01-19T10:19:52.954Z,46.01
2023-01-19T10:20:52.953Z,45.81
2023-01-19T10:21:52.967Z,45.6
2023-01-19T10:22:53.030Z,45.46
2023-01-19T10:23:52.954Z,45.12
2023-01-19T10:24:52.966Z,44.94
2023-01-19T10:25:52.966Z,44.88
2023-01-19T10:26:52.967Z,44.73
2023-01-19T10:27:52.954Z,44.71
2023-01-19T10:28:52.968Z,44.83
2023-01-19T10:29:52.968Z,44.71
2023-01-19T10:30:52.968Z,44.63
2023-01-19T10:31:52.955Z,44.54
2023-01-19T10:32:52.968Z,44.62
2023-01-19T10:33:52.967Z,44.79
2023-01-19T10:34:52.953Z,44.94
2023-01-19T10:35:52.955Z,45
2023-01-19T10:36:52.968Z,45.04
2023-01-19T10:37:52.969Z,45.27
2023-01-19T10:38:52.955Z,45.15
2023-01-19T10:39:52.956Z,45.15
2023-01-19T10:40:52.969Z,45.17
2023-01-19T10:41:52.968Z,45.22
2023-01-19T10:42:52.955Z,45.45
2023-01-19T10:43:52.969Z,45.66
2023-01-19T10:44:52.969Z,45.95
2023-01-19T10:45:52.969Z,45.99
2023-01-19T10:46:52.956Z,46.06
2023-01-19T10:47:52.969Z,46
2023-01-19T10:48:52.968Z,46.01
2023-01-19T10:49:52.968Z,46.22
2023-01-19T10:50:52.954Z,46.17
2023-01-19T10:51:52.968Z,46.12
2023-01-19T10:52:52.969Z,46.35
2023-01-19T10:54:02.213Z,46.25
2023-01-19T10:54:52.957Z,46.35
2023-01-19T10:55:52.970Z,46.52
2023-01-19T10:56:52.971Z,46.54
2023-01-19T10:57:52.956Z,46.64
2023-01-19T10:58:53.019Z,46.49
2023-01-19T10:59:52.970Z,46.81
2023-01-19T11:00:52.970Z,46.65
2023-01-19T11:01:52.957Z,46.54
2023-01-19T11:02:52.969Z,46.4
2023-01-19T11:03:52.970Z,46.36
2023-01-19T11:04:52.969Z,46.25
2023-01-19T11:05:52.958Z,46.4
2023-01-19T11:06:52.970Z,46.39
2023-01-19T11:07:52.972Z,46.65
2023-01-19T11:08:52.970Z,46.79
2023-01-19T11:09:52.958Z,46.85
2023-01-19T11:10:52.971Z,46.79
2023-01-19T11:11:52.971Z,46.97
2023-01-19T11:12:52.958Z,46.9
2023-01-19T11:13:52.958Z,46.87
2023-01-19T11:14:52.971Z,46.96
2023-01-19T11:15:52.971Z,46.79
2023-01-19T11:16:52.958Z,46.75
2023-01-19T11:17:52.971Z,46.63
2023-01-19T11:18:52.971Z,46.7
2023-01-19T11:19:52.972Z,46.57
2023-01-19T11:20:52.958Z,46.4
2023-01-19T11:21:52.971Z,46.47
2023-01-19T11:22:52.972Z,46.39
2023-01-19T11:23:52.972Z,46.47
2023-01-19T11:24:52.959Z,46.53
2023-01-19T11:25:52.972Z,46.7
2023-01-19T11:26:52.972Z,46.57
2023-01-19T11:27:52.959Z,46.44
2023-01-19T11:28:52.959Z,46.41
2023-01-19T11:29:52.972Z,46.47
2023-01-19T11:30:52.972Z,46.67
2023-01-19T11:31:52.959Z,46.57
2023-01-19T11:32:52.960Z,46.36
2023-01-19T11:33:52.973Z,46.44
2023-01-19T11:34:52.973Z,46.24
2023-01-19T11:35:52.959Z,46.12
2023-01-19T11:36:52.972Z,46.15
2023-01-19T11:37:52.973Z,46.15
2023-01-19T11:38:52.973Z,46.23
2023-01-19T11:39:52.960Z,46.19
2023-01-19T11:40:52.972Z,46.29
2023-01-19T11:41:52.974Z,46.58
2023-01-19T11:42:52.973Z,46.41
2023-01-19T11:43:52.960Z,46.39
2023-01-19T11:44:52.974Z,46.46
2023-01-19T11:45:52.974Z,46.5
2023-01-19T11:46:52.960Z,46.58
2023-01-19T11:47:52.961Z,46.51
2023-01-19T11:48:52.973Z,46.42
2023-01-19T11:49:52.974Z,46.74
2023-01-19T11:50:52.961Z,46.68
2023-01-19T11:51:52.974Z,46.49
2023-01-19T11:52:52.973Z,46.58
2023-01-19T11:53:52.973Z,46.4
2023-01-19T11:54:52.959Z,46.35
2023-01-19T11:55:52.975Z,46.37
2023-01-19T11:56:52.975Z,46.49
2023-01-19T11:57:52.975Z,46.56
2023-01-19T11:58:52.962Z,46.57
2023-01-19T11:59:52.975Z,46.42
2023-01-19T12:00:52.975Z,46.79
2023-01-19T12:01:52.975Z,47.01
2023-01-19T12:02:52.962Z,47.06
2023-01-19T12:03:52.975Z,47.21
2023-01-19T12:04:52.975Z,47.16
2023-01-19T12:05:52.962Z,47.13
2023-01-19T12:06:52.963Z,47.2
2023-01-19T12:07:52.976Z,47.2
2023-01-19T12:08:53.017Z,47.22
2023-01-19T12:09:52.961Z,47.35
2023-01-19T12:10:52.976Z,47.37
2023-01-19T12:11:52.976Z,47.53
2023-01-19T12:12:52.975Z,47.71
2023-01-19T12:13:52.963Z,47.73
2023-01-19T12:14:52.976Z,47.73
2023-01-19T12:15:52.977Z,47.55
2023-01-19T12:16:52.976Z,47.41
2023-01-19T12:17:52.964Z,47.34
2023-01-19T12:18:52.977Z,47.5
2023-01-19T12:19:52.977Z,47.53
2023-01-19T12:20:52.963Z,47.68
2023-01-19T12:21:52.964Z,47.7
2023-01-19T12:22:52.977Z,47.75
2023-01-19T12:23:52.978Z,47.69
2023-01-19T12:24:52.964Z,47.7
2023-01-19T12:25:53.027Z,47.64
2023-01-19T12:26:52.977Z,47.38
2023-01-19T12:27:52.977Z,47.74
2023-01-19T12:28:52.964Z,47.7
2023-01-19T12:29:52.978Z,47.84
2023-01-19T12:30:52.977Z,47.91
2023-01-19T12:31:52.978Z,47.86
2023-01-19T12:32:52.965Z,47.98
2023-01-19T12:34:02.237Z,47.84
2023-01-19T12:34:52.978Z,47.85
2023-01-19T12:35:52.978Z,47.73
2023-01-19T12:36:52.965Z,47.81
2023-01-19T12:37:52.978Z,47.77
2023-01-19T12:38:52.979Z,47.7
2023-01-19T12:39:52.965Z,47.66
2023-01-19T12:40:52.966Z,47.68
2023-01-19T12:41:52.978Z,47.7
2023-01-19T12:42:52.979Z,47.77
2023-01-19T12:43:52.965Z,47.7
2023-01-19T12:44:52.979Z,47.8
2023-01-19T12:45:52.979Z,47.72
2023-01-19T12:46:52.979Z,47.9
2023-01-19T12:47:52.966Z,48.08
2023-01-19T12:48:52.979Z,47.93
2023-01-19T12:49:53.023Z,47.83
2023-01-19T12:50:52.979Z,47.75
2023-01-19T12:51:52.965Z,47.65
2023-01-19T12:52:52.979Z,47.65
2023-01-19T12:53:52.979Z,47.71
2023-01-19T12:54:52.980Z,47.71
2023-01-19T12:55:52.967Z,47.76
2023-01-19T12:56:52.980Z,47.83
2023-01-19T12:57:52.980Z,47.75
2023-01-19T12:58:52.967Z,47.52
2023-01-19T12:59:52.967Z,47.33
2023-01-19T13:00:52.980Z,47.22
2023-01-19T13:01:53.021Z,47.13